Time;durP1;ratioP1;P1;durP2;ratioP2;P2;SDS_P1;SDS_P2;PMS_P1;PMS_P2;Temp;Humidity;BMP_temperature;BMP_pressure;BME280_temperature;BME280_humidity;BME280_pressure;Samples;Min_cycle;Max_cycle;Signal;HPM_P1;HPM_P2
2023/08/31 00:00:34;;;;;;;6.70;3.50;;;;;;;12.77;92.30;95066.91;4989714;28;20729;-82
2023/08/31 00:03:00;;;;;;;4.80;3.73;;;;;;;12.62;93.38;95076.41;4968637;28;20188;-82
2023/08/31 00:05:28;;;;;;;4.83;3.60;;;;;;;12.74;92.49;95078.47;4972903;28;20229;-82
2023/08/31 00:07:53;;;;;;;4.90;3.63;;;;;;;12.69;92.72;95067.75;4972693;28;20207;-83
2023/08/31 00:10:19;;;;;;;5.23;3.90;;;;;;;12.56;94.02;95069.31;4967626;28;20204;-84
2023/08/31 00:12:45;;;;;;;6.47;3.77;;;;;;;12.62;93.71;95072.03;4973100;28;20212;-84
2023/08/31 00:15:10;;;;;;;7.73;4.77;;;;;;;12.52;93.77;95076.63;4970274;28;20287;-83
2023/08/31 00:17:35;;;;;;;4.90;3.73;;;;;;;12.63;93.53;95083.25;4968911;28;20193;-83
2023/08/31 00:20:05;;;;;;;6.40;3.87;;;;;;;12.62;93.47;95092.06;4970440;28;20216;-82
2023/08/31 00:22:31;;;;;;;7.33;4.30;;;;;;;12.62;93.75;95092.88;4968269;28;20642;-84
2023/08/31 00:24:57;;;;;;;8.33;3.90;;;;;;;12.59;93.94;95092.41;4973053;28;20195;-83
2023/08/31 00:27:22;;;;;;;4.13;3.70;;;;;;;12.66;93.66;95101.16;4971983;28;20271;-83
2023/08/31 00:29:50;;;;;;;5.33;3.93;;;;;;;12.58;93.83;95091.59;4953910;28;20746;-83
2023/08/31 00:32:16;;;;;;;6.90;4.37;;;;;;;12.71;93.79;95094.44;4972437;28;20211;-82
2023/08/31 00:34:41;;;;;;;5.07;3.97;;;;;;;12.66;93.57;95091.56;4982780;28;20189;-85
2023/08/31 00:37:06;;;;;;;7.63;4.13;;;;;;;12.64;93.91;95093.53;4978298;28;20279;-84
2023/08/31 00:39:33;;;;;;;7.23;4.70;;;;;;;12.81;93.07;95088.19;4974061;28;20294;-83
2023/08/31 00:41:59;;;;;;;8.43;4.00;;;;;;;12.83;93.06;95087.06;4977248;28;20543;-85
2023/08/31 00:44:24;;;;;;;5.30;4.37;;;;;;;12.89;92.52;95075.13;4970141;28;20204;-85
2023/08/31 00:46:49;;;;;;;5.63;4.00;;;;;;;12.92;91.97;95077.41;4967669;28;20204;-84
2023/08/31 00:49:15;;;;;;;6.13;4.10;;;;;;;12.83;91.53;95073.22;4966330;28;20208;-85
2023/08/31 00:51:41;;;;;;;7.53;4.23;;;;;;;12.88;91.10;95070.91;4981155;28;20193;-83
2023/08/31 00:54:06;;;;;;;7.17;4.03;;;;;;;12.85;90.88;95082.47;4975367;28;20212;-83
2023/08/31 00:56:32;;;;;;;7.27;4.00;;;;;;;12.66;91.72;95081.13;4966193;28;20558;-84
2023/08/31 00:58:57;;;;;;;5.10;3.77;;;;;;;12.63;91.73;95080.66;4970558;28;20272;-82
2023/08/31 01:01:37;;;;;;;5.87;4.00;;;;;;;12.53;92.99;95086.06;4972567;28;20627;-83
2023/08/31 01:04:31;;;;;;;7.30;4.43;;;;;;;12.57;92.28;95086.56;4973617;28;20717;-83
2023/08/31 01:07:30;;;;;;;7.27;4.57;;;;;;;12.45;93.76;95088.72;4972740;28;20663;-83
2023/08/31 01:10:16;;;;;;;7.20;4.43;;;;;;;12.37;93.92;95086.19;4975024;28;20707;-83
2023/08/31 01:12:49;;;;;;;6.00;4.17;;;;;;;12.46;93.67;95098.19;4969684;28;20215;-84
2023/08/31 01:15:15;;;;;;;7.90;3.90;;;;;;;12.43;93.45;95088.06;4954401;28;20233;-83
2023/08/31 01:17:44;;;;;;;9.17;4.20;;;;;;;12.39;94.11;95094.63;4972437;28;20532;-83
2023/08/31 01:20:11;;;;;;;4.37;3.97;;;;;;;12.27;95.17;95091.56;4972710;28;20570;-82
2023/08/31 01:22:43;;;;;;;4.60;3.70;;;;;;;12.35;94.58;95090.72;4974689;28;20185;-84
2023/08/31 01:25:09;;;;;;;7.23;4.10;;;;;;;12.42;94.27;95099.47;4985309;28;20223;-82
2023/08/31 01:27:35;;;;;;;9.67;4.40;;;;;;;12.39;94.14;95111.06;4971728;28;20219;-84
2023/08/31 01:30:02;;;;;;;8.23;4.37;;;;;;;12.40;94.93;95111.88;4956186;28;20227;-83
2023/08/31 01:32:28;;;;;;;5.40;3.80;;;;;;;12.45;94.76;95114.75;4972046;28;20208;-83
2023/08/31 01:34:55;;;;;;;4.63;4.00;;;;;;;12.55;94.71;95114.56;4955687;28;20634;-83
2023/08/31 01:37:43;;;;;;;5.73;4.60;;;;;;;12.63;94.60;95117.97;4969744;28;20220;-84
2023/08/31 01:40:14;;;;;;;7.73;4.30;;;;;;;12.67;94.53;95108.00;4956468;28;20562;-84
2023/08/31 01:42:42;;;;;;;6.97;4.57;;;;;;;12.70;94.15;95107.63;4972144;28;20223;-83
2023/08/31 01:45:08;;;;;;;6.10;4.20;;;;;;;12.77;93.70;95108.59;4955810;28;20230;-83
2023/08/31 01:47:33;;;;;;;4.87;3.90;;;;;;;12.78;93.30;95110.19;4973832;28;20627;-84
2023/08/31 01:49:59;;;;;;;5.47;3.63;;;;;;;12.72;92.90;95111.72;4972425;28;20235;-82
2023/08/31 01:52:24;;;;;;;6.93;4.03;;;;;;;12.69;92.58;95119.03;4971270;28;20216;-83
2023/08/31 01:54:50;;;;;;;6.73;3.30;;;;;;;12.92;91.87;95122.50;4986713;28;20240;-84
2023/08/31 01:57:15;;;;;;;7.53;4.10;;;;;;;12.96;91.49;95122.97;4968144;28;20343;-82
2023/08/31 01:59:40;;;;;;;7.00;3.90;;;;;;;12.94;91.10;95127.53;4977179;28;20243;-82
2023/08/31 02:02:06;;;;;;;9.37;3.90;;;;;;;12.99;90.67;95126.06;4963707;28;20665;-82
2023/08/31 02:04:31;;;;;;;7.03;3.70;;;;;;;13.03;90.47;95121.28;4970380;28;20189;-82
2023/08/31 02:06:56;;;;;;;6.43;3.63;;;;;;;13.04;90.88;95122.91;4971044;28;20192;-84
2023/08/31 02:09:22;;;;;;;7.00;4.07;;;;;;;13.02;90.49;95122.28;4958300;28;20711;-82
2023/08/31 02:11:47;;;;;;;12.43;4.27;;;;;;;12.90;90.93;95129.69;4971967;28;20188;-82
2023/08/31 02:14:12;;;;;;;6.00;3.07;;;;;;;13.03;90.59;95129.13;4968818;28;20209;-82
2023/08/31 02:16:38;;;;;;;7.00;3.67;;;;;;;12.97;90.55;95121.97;4967389;28;20192;-82
2023/08/31 02:19:03;;;;;;;7.47;3.43;;;;;;;12.94;89.99;95124.94;4965688;28;20295;-83
2023/08/31 02:21:31;;;;;;;5.20;3.57;;;;;;;12.93;90.51;95128.53;4971709;28;20200;-82
2023/08/31 02:23:56;;;;;;;7.00;3.60;;;;;;;13.05;90.07;95127.94;4970620;28;20199;-81
2023/08/31 02:26:22;;;;;;;8.77;3.47;;;;;;;13.02;89.74;95132.72;4970381;28;20188;-82
2023/08/31 02:28:47;;;;;;;5.57;3.57;;;;;;;13.05;89.62;95140.97;4970821;28;20208;-83
2023/08/31 02:31:13;;;;;;;7.60;3.63;;;;;;;13.06;89.48;95133.97;4971195;28;20192;-83
2023/08/31 02:33:39;;;;;;;5.97;3.77;;;;;;;13.09;89.52;95138.88;4971274;28;20580;-83
2023/08/31 02:36:04;;;;;;;8.47;4.20;;;;;;;13.04;89.27;95135.94;4970853;28;20199;-83
2023/08/31 02:38:29;;;;;;;6.50;3.53;;;;;;;13.09;89.29;95138.06;4965437;28;20212;-81
2023/08/31 02:40:55;;;;;;;7.37;3.70;;;;;;;12.95;89.46;95136.97;4972026;28;20192;-81
2023/08/31 02:43:20;;;;;;;4.67;3.03;;;;;;;13.02;89.14;95132.72;4971081;28;20191;-81
2023/08/31 02:45:45;;;;;;;5.43;3.47;;;;;;;12.99;89.73;95138.28;4971756;28;20204;-83
2023/08/31 02:48:11;;;;;;;5.00;3.33;;;;;;;12.94;90.35;95137.97;4969882;28;20220;-83
2023/08/31 02:50:36;;;;;;;6.77;3.30;;;;;;;12.94;90.10;95135.38;4975524;28;20188;-82
2023/08/31 02:53:02;;;;;;;5.80;3.20;;;;;;;12.96;89.75;95133.38;4975279;28;20216;-83
2023/08/31 02:55:27;;;;;;;6.67;3.50;;;;;;;12.97;89.50;95141.03;4991445;28;20201;-84
2023/08/31 02:57:53;;;;;;;5.23;3.30;;;;;;;12.81;90.15;95148.13;4965024;28;20200;-82
2023/08/31 03:00:21;;;;;;;5.70;3.30;;;;;;;12.77;90.16;95147.66;4956867;28;20192;-82
2023/08/31 03:02:52;;;;;;;6.73;3.23;;;;;;;12.78;90.78;95149.28;4975213;28;20308;-82
2023/08/31 03:05:17;;;;;;;8.20;3.17;;;;;;;12.86;90.22;95143.22;4974163;28;20196;-82
2023/08/31 03:07:43;;;;;;;6.63;3.87;;;;;;;12.77;90.91;95148.47;4973448;28;20200;-82
2023/08/31 03:10:08;;;;;;;5.87;3.23;;;;;;;12.89;89.87;95140.28;4974968;28;20209;-82
2023/08/31 03:12:34;;;;;;;5.43;3.17;;;;;;;12.92;89.46;95148.56;4974191;28;20208;-83
2023/08/31 03:14:59;;;;;;;7.57;3.30;;;;;;;12.90;89.09;95140.13;4973997;28;20204;-83
2023/08/31 03:17:24;;;;;;;7.83;3.83;;;;;;;12.93;89.04;95150.19;4973837;28;20212;-82
2023/08/31 03:19:50;;;;;;;5.13;3.37;;;;;;;12.97;88.87;95155.84;4974585;28;20251;-83
2023/08/31 03:22:15;;;;;;;8.33;3.20;;;;;;;12.90;89.32;95155.75;4982099;28;20275;-83
2023/08/31 03:24:40;;;;;;;7.30;3.83;;;;;;;12.81;90.64;95158.53;4978779;28;20219;-82
2023/08/31 03:27:06;;;;;;;6.60;3.37;;;;;;;12.83;90.61;95159.22;4974262;28;20188;-83
2023/08/31 03:29:32;;;;;;;5.10;3.40;;;;;;;12.88;90.92;95160.31;4975076;28;20208;-81
2023/08/31 03:31:57;;;;;;;5.40;3.03;;;;;;;12.90;90.59;95171.41;4974478;28;20188;-81
2023/08/31 03:34:23;;;;;;;6.50;3.60;;;;;;;12.82;91.59;95168.00;4970574;28;20275;-83
2023/08/31 03:36:50;;;;;;;5.13;3.00;;;;;;;12.82;91.35;95157.59;4964377;28;20192;-84
2023/08/31 03:39:15;;;;;;;4.83;3.03;;;;;;;12.92;90.49;95155.59;4966004;28;20216;-82
2023/08/31 03:41:40;;;;;;;3.43;3.10;;;;;;;12.88;90.62;95170.72;4974383;28;20195;-81
2023/08/31 03:44:06;;;;;;;4.97;3.00;;;;;;;12.85;91.55;95176.28;4974170;28;20231;-82
2023/08/31 03:46:31;;;;;;;6.27;3.30;;;;;;;12.89;91.33;95168.94;4962497;28;20195;-82
2023/08/31 03:48:57;;;;;;;5.57;3.57;;;;;;;12.92;91.18;95166.00;4973509;28;20280;-81
2023/08/31 03:51:22;;;;;;;5.83;3.20;;;;;;;12.94;90.98;95174.47;4974061;28;20192;-82
2023/08/31 03:53:47;;;;;;;5.00;2.80;;;;;;;12.90;91.32;95171.41;4973335;28;20299;-81
2023/08/31 03:56:13;;;;;;;6.77;3.37;;;;;;;12.92;91.43;95181.63;4973047;28;20188;-82
2023/08/31 03:58:38;;;;;;;3.73;3.33;;;;;;;12.90;91.47;95178.41;4954732;28;20209;-82
2023/08/31 04:01:05;;;;;;;5.37;3.13;;;;;;;12.87;91.57;95184.75;4974228;28;20631;-81
2023/08/31 04:03:30;;;;;;;8.53;3.30;;;;;;;12.88;91.58;95188.16;4973466;28;20188;-82
2023/08/31 04:05:56;;;;;;;7.63;3.77;;;;;;;12.94;90.77;95183.09;4970193;28;20239;-81
2023/08/31 04:08:21;;;;;;;10.10;3.40;;;;;;;12.87;91.03;95183.94;4973324;28;20220;-81
2023/08/31 04:10:46;;;;;;;6.20;3.23;;;;;;;12.92;91.00;95185.06;4971537;28;20211;-84
2023/08/31 04:13:12;;;;;;;6.97;3.27;;;;;;;12.97;90.38;95181.91;4974290;28;20221;-81
2023/08/31 04:15:37;;;;;;;5.10;3.10;;;;;;;12.98;90.53;95188.75;4973282;28;20205;-82
2023/08/31 04:18:02;;;;;;;4.37;3.53;;;;;;;12.90;90.86;95187.03;4973065;28;20821;-82
2023/08/31 04:20:28;;;;;;;6.43;3.47;;;;;;;12.86;90.77;95188.34;4974117;28;20666;-82
2023/08/31 04:22:53;;;;;;;6.30;2.93;;;;;;;12.90;91.15;95194.03;4973525;28;20192;-83
2023/08/31 04:25:19;;;;;;;4.73;3.40;;;;;;;12.90;90.31;95197.44;4957776;28;20407;-81
2023/08/31 04:27:45;;;;;;;5.27;3.50;;;;;;;12.88;90.42;95193.38;4973913;28;20195;-82
2023/08/31 04:30:11;;;;;;;7.73;2.90;;;;;;;12.68;91.66;95199.00;4973191;28;20223;-80
2023/08/31 04:32:36;;;;;;;7.53;2.80;;;;;;;12.78;91.05;95198.78;4978220;28;20286;-82
2023/08/31 04:35:04;;;;;;;6.27;3.40;;;;;;;12.79;91.13;95203.00;4974125;28;20666;-80
2023/08/31 04:37:30;;;;;;;6.17;3.93;;;;;;;12.81;90.92;95195.88;4973008;28;20292;-79
2023/08/31 04:39:55;;;;;;;5.73;3.27;;;;;;;12.89;90.63;95206.22;4972816;28;20307;-80
2023/08/31 04:42:20;;;;;;;5.73;3.90;;;;;;;12.89;90.43;95208.03;4970379;28;20196;-82
2023/08/31 04:44:46;;;;;;;7.30;3.30;;;;;;;12.89;90.13;95200.19;4960041;28;20626;-81
2023/08/31 04:47:11;;;;;;;5.87;3.40;;;;;;;12.77;90.58;95208.41;4986622;28;20279;-80
2023/08/31 04:49:36;;;;;;;7.23;3.50;;;;;;;12.77;89.82;95208.41;4972678;28;20212;-81
2023/08/31 04:52:02;;;;;;;7.70;3.43;;;;;;;12.87;89.92;95212.59;4970619;28;20225;-81
2023/08/31 04:54:27;;;;;;;8.30;3.47;;;;;;;12.76;90.22;95212.00;4989361;28;20184;-81
2023/08/31 04:56:53;;;;;;;7.13;3.40;;;;;;;12.77;90.15;95212.81;4972303;28;20211;-81
2023/08/31 04:59:18;;;;;;;5.57;3.20;;;;;;;12.75;89.92;95202.56;4972759;28;20212;-81
2023/08/31 05:01:43;;;;;;;7.57;3.17;;;;;;;12.73;89.75;95204.53;4977064;28;20239;-81
2023/08/31 05:04:08;;;;;;;7.10;2.93;;;;;;;12.69;89.51;95208.44;4956547;28;20576;-82
2023/08/31 05:06:34;;;;;;;6.60;3.47;;;;;;;12.69;89.03;95216.25;4967867;28;20671;-82
2023/08/31 05:09:00;;;;;;;5.17;3.00;;;;;;;12.76;88.21;95209.38;4971934;28;20200;-81
2023/08/31 05:11:25;;;;;;;4.40;3.20;;;;;;;12.71;88.29;95227.31;4970338;28;20664;-82
2023/08/31 05:13:51;;;;;;;5.53;2.67;;;;;;;12.89;87.31;95223.66;4971542;28;20360;-80
2023/08/31 05:16:16;;;;;;;6.80;3.23;;;;;;;13.05;86.40;95231.41;4971636;28;20181;-81
2023/08/31 05:18:41;;;;;;;6.07;2.90;;;;;;;12.87;85.89;95231.66;4971986;28;20212;-82
2023/08/31 05:21:07;;;;;;;7.33;2.70;;;;;;;12.99;85.52;95232.09;4971932;28;20196;-82
2023/08/31 05:23:32;;;;;;;8.00;3.03;;;;;;;12.99;84.99;95232.09;4971784;28;20184;-81
2023/08/31 05:25:58;;;;;;;6.83;2.87;;;;;;;12.91;85.01;95234.75;4955134;28;20185;-81
2023/08/31 05:28:23;;;;;;;5.03;2.63;;;;;;;13.03;84.55;95239.41;4969325;28;20220;-81
2023/08/31 05:30:50;;;;;;;3.93;2.83;;;;;;;12.98;83.94;95240.88;4971541;28;20196;-80
2023/08/31 05:33:16;;;;;;;5.97;3.13;;;;;;;12.97;83.67;95244.47;4955611;28;20307;-80
2023/08/31 05:35:42;;;;;;;5.17;2.73;;;;;;;13.05;82.87;95247.06;4971584;28;20218;-79
2023/08/31 05:38:07;;;;;;;5.00;2.63;;;;;;;12.96;82.85;95240.25;4964132;28;20224;-79
2023/08/31 05:40:32;;;;;;;8.40;2.73;;;;;;;13.28;81.78;95247.94;4972434;28;20181;-79
2023/08/31 05:42:57;;;;;;;5.20;2.50;;;;;;;13.47;80.93;95246.69;4970578;28;20673;-80
2023/08/31 05:45:23;;;;;;;6.60;2.80;;;;;;;13.54;80.23;95252.84;4970763;28;20647;-80
2023/08/31 05:47:51;;;;;;;4.70;2.50;;;;;;;13.71;80.13;95252.75;4971576;28;20266;-82
2023/08/31 05:50:16;;;;;;;5.50;2.47;;;;;;;13.80;79.78;95252.53;4983340;28;20193;-81
2023/08/31 05:52:44;;;;;;;6.83;2.40;;;;;;;14.10;78.99;95252.59;4962654;28;20232;-81
2023/08/31 05:55:09;;;;;;;6.90;2.37;;;;;;;14.02;78.48;95250.06;4964997;28;20199;-80
2023/08/31 05:57:35;;;;;;;4.50;2.23;;;;;;;13.84;79.43;95259.00;4971768;28;20192;-79
2023/08/31 06:00:00;;;;;;;7.40;2.50;;;;;;;13.75;79.34;95254.81;4955675;28;20267;-80
2023/08/31 06:02:26;;;;;;;8.67;3.03;;;;;;;13.86;79.22;95259.63;4973527;28;20188;-79
2023/08/31 06:04:51;;;;;;;4.50;2.53;;;;;;;13.72;79.18;95270.84;4969914;28;20200;-80
2023/08/31 06:07:16;;;;;;;5.50;2.57;;;;;;;13.89;79.99;95271.53;4971109;28;20283;-80
2023/08/31 06:09:41;;;;;;;5.87;2.30;;;;;;;13.83;80.07;95262.59;4969383;28;20223;-80
2023/08/31 06:12:10;;;;;;;8.20;2.60;;;;;;;13.86;80.31;95264.84;4968650;28;20191;-80
2023/08/31 06:14:35;;;;;;;5.03;2.40;;;;;;;13.92;79.92;95271.19;4971485;28;20259;-80
2023/08/31 06:17:01;;;;;;;5.13;2.30;;;;;;;13.98;79.88;95267.06;4971075;28;20192;-81
2023/08/31 06:19:26;;;;;;;6.20;2.37;;;;;;;14.21;79.24;95269.63;4971534;28;20728;-80
2023/08/31 06:21:51;;;;;;;6.00;2.40;;;;;;;14.16;78.94;95268.38;4972020;28;20184;-80
2023/08/31 06:24:16;;;;;;;8.20;2.50;;;;;;;14.25;79.07;95270.94;4971523;28;20181;-80
2023/08/31 06:26:42;;;;;;;7.17;2.67;;;;;;;14.15;78.76;95276.41;4968305;28;20192;-80
2023/08/31 06:29:10;;;;;;;5.73;2.50;;;;;;;14.22;78.60;95279.91;4966911;28;20682;-80
2023/08/31 06:31:36;;;;;;;7.70;2.30;;;;;;;14.18;78.09;95279.47;4972064;28;20199;-80
2023/08/31 06:34:02;;;;;;;4.93;2.23;;;;;;;14.02;77.95;95286.59;4963476;28;20208;-79
2023/08/31 06:36:27;;;;;;;3.87;2.00;;;;;;;14.13;78.19;95288.78;4969823;28;20760;-79
2023/08/31 06:38:52;;;;;;;7.03;2.30;;;;;;;14.25;77.03;95295.25;4969889;28;20208;-80
2023/08/31 06:41:18;;;;;;;4.77;2.40;;;;;;;14.22;77.15;95290.34;4970174;28;20227;-82
2023/08/31 06:43:45;;;;;;;5.00;2.20;;;;;;;14.29;76.19;95290.47;4970974;28;20543;-79
2023/08/31 06:46:11;;;;;;;6.38;2.60;;;;;;;14.42;75.72;95288.06;4983244;28;20258;-77
2023/08/31 06:48:36;;;;;;;4.77;2.20;;;;;;;14.24;76.32;95277.94;4980882;28;20686;-82
2023/08/31 06:51:03;;;;;;;5.27;2.30;;;;;;;13.96;76.09;95282.91;4971701;28;20659;-79
2023/08/31 06:53:29;;;;;;;3.90;2.03;;;;;;;14.18;77.18;95281.25;4971641;28;20235;-81
2023/08/31 06:55:54;;;;;;;5.30;2.40;;;;;;;13.84;77.52;95282.50;4971124;28;20196;-81
2023/08/31 06:58:19;;;;;;;8.37;2.70;;;;;;;14.07;77.34;95282.50;4984486;28;20212;-83
2023/08/31 07:00:45;;;;;;;5.60;2.40;;;;;;;14.42;76.72;95288.88;4971324;28;20197;-82
2023/08/31 07:03:11;;;;;;;5.20;2.10;;;;;;;14.42;75.80;95288.88;4963643;28;20176;-82
2023/08/31 07:05:41;;;;;;;7.60;2.60;;;;;;;14.34;75.42;95291.56;4967143;28;20681;-81
2023/08/31 07:08:07;;;;;;;6.20;1.97;;;;;;;14.32;74.05;95292.75;4970226;28;20658;-82
2023/08/31 07:10:32;;;;;;;4.10;2.33;;;;;;;14.58;73.47;95295.81;4964712;28;20188;-81
2023/08/31 07:12:57;;;;;;;4.77;2.13;;;;;;;14.95;73.12;95301.94;4970008;28;20682;-79
2023/08/31 07:15:23;;;;;;;6.13;2.43;;;;;;;14.91;72.61;95304.09;4970501;28;20272;-79
2023/08/31 07:17:48;;;;;;;8.73;2.33;;;;;;;15.12;71.84;95311.25;4970411;28;20213;-79
2023/08/31 07:20:13;;;;;;;3.07;2.10;;;;;;;15.59;69.49;95318.66;4970407;28;20274;-79
2023/08/31 07:22:40;;;;;;;3.80;2.20;;;;;;;15.75;68.71;95327.31;4959159;28;20689;-80
2023/08/31 07:25:07;;;;;;;3.47;2.00;;;;;;;16.22;67.77;95333.84;4969982;28;20199;-80
2023/08/31 07:27:32;;;;;;;5.88;2.10;;;;;;;16.45;67.38;95331.03;4964270;28;20266;-80
2023/08/31 07:29:57;;;;;;;4.80;2.03;;;;;;;16.71;66.76;95336.50;4970366;28;20204;-80
2023/08/31 07:32:22;;;;;;;5.78;2.38;;;;;;;16.62;66.08;95343.69;4971191;28;20209;-80
2023/08/31 07:34:48;;;;;;;3.70;2.10;;;;;;;16.96;66.32;95340.31;4972052;28;20184;-80
2023/08/31 07:37:13;;;;;;;4.03;2.10;;;;;;;16.80;65.44;95347.66;4976818;28;20210;-81
2023/08/31 07:39:38;;;;;;;7.75;3.05;;;;;;;17.03;64.90;95337.72;4973427;28;20208;-80
2023/08/31 07:42:05;;;;;;;4.20;2.00;;;;;;;17.21;63.91;95340.66;4973861;28;20227;-80
2023/08/31 07:44:30;;;;;;;2.30;2.10;;;;;;;17.21;61.71;95345.09;4973973;28;20188;-81
2023/08/31 07:46:59;;;;;;;3.08;2.10;;;;;;;17.55;60.66;95346.88;4983815;28;20188;-80
2023/08/31 07:49:24;;;;;;;5.25;2.05;;;;;;;17.44;60.90;95344.81;4981770;28;20239;-79
2023/08/31 07:51:50;;;;;;;3.42;1.70;;;;;;;17.60;60.69;95341.88;4973652;28;20212;-80
2023/08/31 07:54:22;;;;;;;7.22;2.15;;;;;;;17.52;59.38;95352.53;4973279;28;20215;-80
2023/08/31 07:56:47;;;;;;;3.97;1.92;;;;;;;17.30;60.25;95353.63;4959050;28;20192;-79
2023/08/31 07:59:12;;;;;;;5.80;2.00;;;;;;;17.49;60.21;95352.91;4973214;28;20227;-79
2023/08/31 08:01:37;;;;;;;4.63;2.03;;;;;;;17.65;59.57;95355.19;4974800;28;20184;-79
2023/08/31 08:04:03;;;;;;;6.10;2.50;;;;;;;17.62;59.06;95368.72;4969501;28;20643;-80
2023/08/31 08:06:28;;;;;;;3.55;2.35;;;;;;;17.40;58.82;95365.38;4983278;28;20196;-79
2023/08/31 08:08:53;;;;;;;7.95;2.22;;;;;;;17.46;56.81;95371.69;4973712;28;20291;-80
2023/08/31 08:11:19;;;;;;;5.70;2.25;;;;;;;17.41;57.65;95363.59;4972966;28;20188;-80
2023/08/31 08:13:44;;;;;;;3.70;2.05;;;;;;;17.49;56.86;95355.53;4974313;28;20207;-80
2023/08/31 08:16:09;;;;;;;5.82;2.38;;;;;;;17.82;56.79;95364.41;4975608;28;20745;-80
2023/08/31 08:18:35;;;;;;;3.20;2.13;;;;;;;18.13;55.65;95362.28;4972562;28;20583;-79
2023/08/31 08:21:00;;;;;;;4.35;2.00;;;;;;;17.94;55.51;95361.22;4989217;28;20192;-80
2023/08/31 08:23:25;;;;;;;5.10;2.03;;;;;;;18.27;55.22;95364.72;4973144;28;20195;-79
2023/08/31 08:25:51;;;;;;;4.20;2.03;;;;;;;18.26;55.30;95372.81;4973835;28;20344;-79
2023/08/31 08:28:16;;;;;;;4.75;1.80;;;;;;;17.69;54.44;95381.91;4972052;28;20651;-80
2023/08/31 08:30:41;;;;;;;4.00;2.25;;;;;;;17.52;55.14;95376.97;4972861;28;20189;-78
2023/08/31 08:33:08;;;;;;;2.80;2.00;;;;;;;17.97;55.14;95381.84;4968834;28;20219;-80
2023/08/31 08:35:33;;;;;;;6.07;2.17;;;;;;;17.77;56.40;95382.56;4978658;28;20195;-78
2023/08/31 08:37:59;;;;;;;4.10;2.42;;;;;;;17.46;55.16;95374.31;4960837;28;20189;-79
2023/08/31 08:40:25;;;;;;;4.65;2.30;;;;;;;17.55;55.30;95378.38;4972361;28;20512;-80
2023/08/31 08:42:52;;;;;;;6.45;2.22;;;;;;;17.54;55.70;95380.22;4988934;28;20199;-80
2023/08/31 08:45:19;;;;;;;6.00;2.25;;;;;;;17.40;55.55;95382.94;4965294;28;20564;-79
2023/08/31 08:47:46;;;;;;;5.32;2.60;;;;;;;17.85;55.02;95388.66;4972388;28;20180;-80
2023/08/31 08:50:12;;;;;;;5.50;2.15;;;;;;;17.79;55.22;95388.44;4956368;28;20298;-80
2023/08/31 08:52:38;;;;;;;4.88;2.28;;;;;;;18.09;54.90;95390.75;4973082;28;20328;-80
2023/08/31 08:55:04;;;;;;;3.17;1.90;;;;;;;17.83;52.07;95389.66;4977094;28;20181;-81
2023/08/31 08:57:34;;;;;;;3.45;2.08;;;;;;;17.43;50.67;95395.69;4971367;28;20191;-81
2023/08/31 08:59:59;;;;;;;5.35;2.20;;;;;;;17.16;51.93;95398.16;4973557;28;20637;-81
2023/08/31 09:02:25;;;;;;;4.40;1.85;;;;;;;17.27;52.68;95397.63;4971577;28;20235;-81
2023/08/31 09:04:54;;;;;;;6.00;2.30;;;;;;;17.13;52.87;95395.91;4963737;28;20181;-80
2023/08/31 09:07:23;;;;;;;10.52;2.33;;;;;;;17.23;53.18;95401.66;4970896;28;20204;-80
2023/08/31 09:09:50;;;;;;;4.97;1.90;;;;;;;17.23;51.84;95401.66;4971149;28;20200;-81
2023/08/31 09:12:15;;;;;;;2.67;1.90;;;;;;;17.16;52.09;95413.09;4971110;28;20204;-80
2023/08/31 09:14:40;;;;;;;4.13;2.03;;;;;;;17.08;52.14;95400.94;4970968;28;20192;-81
2023/08/31 09:17:06;;;;;;;5.25;2.58;;;;;;;17.03;53.27;95407.75;4954664;28;20192;-80
2023/08/31 09:19:31;;;;;;;7.32;2.08;;;;;;;16.90;52.80;95411.09;4985244;28;20293;-81
2023/08/31 09:21:57;;;;;;;2.67;1.83;;;;;;;16.70;52.59;95414.38;4972805;28;20188;-81
2023/08/31 09:24:23;;;;;;;3.88;1.98;;;;;;;16.73;52.78;95414.97;4971699;28;20724;-81
2023/08/31 09:26:58;;;;;;;4.80;2.30;;;;;;;17.12;53.01;95420.53;4977712;28;20184;-81
2023/08/31 09:29:24;;;;;;;4.03;2.03;;;;;;;17.02;51.71;95421.88;4971082;28;20581;-81
2023/08/31 09:31:50;;;;;;;5.38;2.17;;;;;;;16.70;51.90;95419.59;4974879;28;20180;-80
2023/08/31 09:34:16;;;;;;;4.90;2.30;;;;;;;16.79;52.19;95420.28;4971115;28;20220;-81
2023/08/31 09:36:42;;;;;;;4.88;2.25;;;;;;;16.90;52.39;95421.56;4970819;28;20311;-81
2023/08/31 09:39:08;;;;;;;6.05;2.13;;;;;;;16.95;52.72;95419.19;4968370;28;20299;-81
2023/08/31 09:41:34;;;;;;;3.72;2.10;;;;;;;16.89;53.66;95428.63;4971155;28;20569;-81
2023/08/31 09:44:20;;;;;;;4.15;1.75;;;;;;;16.72;52.76;95431.72;4970894;28;20212;-81
2023/08/31 09:46:46;;;;;;;3.25;1.92;;;;;;;16.55;51.85;95433.75;4970240;28;20200;-81
2023/08/31 09:49:14;;;;;;;5.78;2.30;;;;;;;16.45;52.59;95426.19;4971010;28;20242;-81
2023/08/31 09:51:43;;;;;;;7.25;2.30;;;;;;;16.69;52.37;95419.78;4967757;28;20193;-80
2023/08/31 09:54:09;;;;;;;5.82;2.00;;;;;;;17.04;52.09;95431.16;4971433;28;20310;-81
2023/08/31 09:56:35;;;;;;;7.10;2.40;;;;;;;17.02;51.87;95434.97;4968441;28;20192;-81
2023/08/31 09:59:01;;;;;;;5.63;2.83;;;;;;;17.07;52.37;95425.53;4971479;28;20219;-80
2023/08/31 10:01:27;;;;;;;8.05;2.35;;;;;;;16.88;51.46;95434.06;4961010;28;20208;-81
2023/08/31 10:03:52;;;;;;;5.05;2.15;;;;;;;17.36;51.07;95442.91;4970962;28;20188;-81
2023/08/31 10:06:18;;;;;;;8.07;2.40;;;;;;;17.42;51.88;95441.34;4971596;28;20701;-81
2023/08/31 10:08:44;;;;;;;4.32;1.92;;;;;;;18.06;49.97;95436.63;4955017;28;20741;-81
2023/08/31 10:11:12;;;;;;;6.32;2.45;;;;;;;18.37;48.67;95436.09;4981171;28;20188;-81
2023/08/31 10:13:40;;;;;;;3.50;2.13;;;;;;;18.16;49.50;95443.34;4970178;28;20223;-81
2023/08/31 10:16:05;;;;;;;9.27;2.40;;;;;;;18.21;48.35;95430.44;4970833;28;20173;-81
2023/08/31 10:18:32;;;;;;;4.28;2.10;;;;;;;17.97;49.35;95432.56;4958306;28;20212;-80
2023/08/31 10:20:57;;;;;;;4.68;2.58;;;;;;;17.72;49.99;95437.50;4983622;28;20199;-80
2023/08/31 10:23:23;;;;;;;6.18;2.30;;;;;;;17.56;50.08;95443.00;4963734;28;20617;-81
2023/08/31 10:25:54;;;;;;;7.28;2.58;;;;;;;17.48;51.30;95435.28;4960799;28;20223;-81
2023/08/31 10:28:24;;;;;;;5.80;2.20;;;;;;;17.62;52.03;95439.63;4970813;28;20680;-81
2023/08/31 10:31:03;;;;;;;4.78;2.63;;;;;;;17.64;50.99;95445.50;4954709;28;20193;-81
2023/08/31 10:33:31;;;;;;;5.68;2.38;;;;;;;17.91;51.42;95437.78;4984375;28;20216;-82
2023/08/31 10:35:56;;;;;;;6.05;2.60;;;;;;;18.17;49.98;95429.19;4968070;28;20203;-81
2023/08/31 10:38:32;;;;;;;5.65;2.40;;;;;;;18.09;50.68;95432.78;4970132;28;20204;-80
2023/08/31 10:41:18;;;;;;;6.70;2.67;;;;;;;18.18;50.30;95426.34;4969698;28;20184;-81
2023/08/31 10:43:57;;;;;;;8.43;2.65;;;;;;;17.98;49.46;95431.53;4985592;28;20186;-80
2023/08/31 10:46:43;;;;;;;5.45;2.30;;;;;;;18.26;49.89;95439.31;4952963;28;20413;-81
2023/08/31 10:49:08;;;;;;;5.65;2.47;;;;;;;18.37;50.15;95440.56;4970485;28;20239;-81
2023/08/31 10:51:34;;;;;;;7.13;2.38;;;;;;;18.22;49.99;95432.03;4970484;28;20279;-81
2023/08/31 10:54:09;;;;;;;6.90;2.80;;;;;;;18.61;50.18;95447.09;4970144;28;20600;-81
2023/08/31 10:57:00;;;;;;;4.43;2.28;;;;;;;18.44;50.23;95437.97;4971038;28;20184;-81
2023/08/31 10:59:26;;;;;;;6.20;2.40;;;;;;;18.68;49.49;95432.16;4969117;28;20842;-81
2023/08/31 11:01:55;;;;;;;7.75;2.67;;;;;;;18.61;50.92;95433.94;4970206;28;20195;-81
2023/08/31 11:04:22;;;;;;;7.28;2.88;;;;;;;18.18;51.51;95426.34;4963554;28;20547;-81
2023/08/31 11:06:47;;;;;;;6.13;2.40;;;;;;;18.38;51.09;95426.44;4953599;28;20279;-81
2023/08/31 11:09:20;;;;;;;7.20;2.85;;;;;;;18.24;50.91;95422.94;4973650;28;20266;-81
2023/08/31 11:11:45;;;;;;;6.70;2.53;;;;;;;18.36;51.48;95429.22;4957603;28;21117;-81
2023/08/31 11:14:11;;;;;;;4.35;2.83;;;;;;;18.48;50.77;95420.78;4973674;28;20215;-81
2023/08/31 11:16:39;;;;;;;7.30;2.45;;;;;;;18.74;50.97;95420.06;4973201;28;20188;-81
2023/08/31 11:19:05;;;;;;;3.60;2.47;;;;;;;18.96;50.31;95424.91;4971648;28;20299;-81
2023/08/31 11:21:31;;;;;;;5.25;2.53;;;;;;;18.85;50.30;95427.34;4966436;28;20188;-81
2023/08/31 11:23:58;;;;;;;7.07;2.67;;;;;;;19.29;49.81;95423.28;4979864;28;20536;-81
2023/08/31 11:26:25;;;;;;;5.00;2.67;;;;;;;19.78;48.94;95423.59;4972885;28;20192;-81
2023/08/31 11:28:50;;;;;;;5.43;2.58;;;;;;;19.61;49.19;95422.41;4973762;28;20242;-81
2023/08/31 11:31:23;;;;;;;4.63;2.22;;;;;;;19.69;48.09;95434.56;4973726;28;20232;-81